Time,TemperatureF,DewpointF,PressureIn,WindDirection,WindDirectionDegrees,WindSpeedMPH,WindSpeedGustMPH,Humidity,HourlyPrecipIn,Conditions,Clouds,dailyrainin,SoftwareType,DateUTC
2013-02-19 00:11:00,35.3,21.0,29.81,East,81,2.0,3.0,56,0.00,,,0.00,weatherlink.com 1.10,2013-02-19 05:11:00,
2013-02-19 00:26:00,36.2,22.0,29.80,East,99,3.0,3.0,57,0.00,,,0.00,weatherlink.com 1.10,2013-02-19 05:26:00,
2013-02-19 00:41:00,36.7,23.0,29.79,ESE,104,2.0,4.0,58,0.00,,,0.00,weatherlink.com 1.10,2013-02-19 05:41:00,
2013-02-19 00:56:00,37.8,24.0,29.79,ESE,106,3.0,4.0,58,0.00,,,0.00,weatherlink.com 1.10,2013-02-19 05:56:00,
2013-02-19 01:11:00,38.2,24.0,29.78,ESE,108,2.0,5.0,58,0.00,,,0.00,weatherlink.com 1.10,2013-02-19 06:11:00,
2013-02-19 01:26:00,38.2,25.0,29.77,ESE,122,3.0,4.0,59,0.00,,,0.00,weatherlink.com 1.10,2013-02-19 06:26:00,
2013-02-19 01:41:00,38.6,25.0,29.77,SE,124,3.0,6.0,59,0.00,,,0.00,weatherlink.com 1.10,2013-02-19 06:41:00,
2013-02-19 01:56:00,39.1,26.0,29.77,East,94,3.0,6.0,59,0.00,,,0.00,weatherlink.com 1.10,2013-02-19 06:56:00,
2013-02-19 02:11:00,39.5,26.0,29.76,SE,131,3.0,6.0,59,0.00,,,0.00,weatherlink.com 1.10,2013-02-19 07:11:00,
2013-02-19 02:26:00,40.4,26.0,29.75,ESE,121,3.0,6.0,58,0.00,,,0.00,weatherlink.com 1.10,2013-02-19 07:26:00,
2013-02-19 02:41:00,40.0,27.0,29.74,ESE,110,3.0,6.0,59,0.00,,,0.00,weatherlink.com 1.10,2013-02-19 07:41:00,
2013-02-19 02:56:00,40.6,28.0,29.73,ESE,121,8.0,11.0,60,0.00,,,0.00,weatherlink.com 1.10,2013-02-19 07:56:00,
2013-02-19 03:11:00,43.3,28.0,29.72,SE,128,6.0,16.0,56,0.00,,,0.00,weatherlink.com 1.10,2013-02-19 08:11:00,
2013-02-19 03:26:00,43.7,28.0,29.70,SE,135,5.0,8.0,55,0.00,,,0.00,weatherlink.com 1.10,2013-02-19 08:26:00,
2013-02-19 03:43:00,42.9,28.0,29.70,ESE,120,3.0,6.0,55,0.00,,,0.00,weatherlink.com 1.10,2013-02-19 08:43:00,
2013-02-19 03:58:00,42.4,28.0,29.70,SE,139,5.0,8.0,57,0.00,,,0.00,weatherlink.com 1.10,2013-02-19 08:58:00,
2013-02-19 04:13:00,43.0,28.0,29.69,SSE,149,9.0,13.0,55,0.00,,,0.00,weatherlink.com 1.10,2013-02-19 09:13:00,
2013-02-19 04:28:00,43.1,27.0,29.68,SSE,163,4.0,13.0,53,0.00,,,0.00,weatherlink.com 1.10,2013-02-19 09:28:00,
2013-02-19 04:43:00,42.7,26.0,29.67,ESE,118,9.0,15.0,53,0.00,,,0.00,weatherlink.com 1.10,2013-02-19 09:43:00,
2013-02-19 04:57:00,42.3,26.0,29.68,SSE,165,6.0,14.0,53,0.00,,,0.00,weatherlink.com 1.10,2013-02-19 09:57:00,
2013-02-19 05:13:00,42.2,26.0,29.67,South,174,4.0,13.0,54,0.00,,,0.00,weatherlink.com 1.10,2013-02-19 10:13:00,
2013-02-19 05:28:00,43.6,30.0,29.67,SSW,207,7.0,23.0,60,0.00,,,0.00,weatherlink.com 1.10,2013-02-19 10:28:00,
2013-02-19 05:43:00,43.3,30.0,29.66,South,191,13.0,21.0,61,0.00,,,0.00,weatherlink.com 1.10,2013-02-19 10:43:00,
2013-02-19 05:57:00,41.9,32.0,29.65,South,179,12.0,19.0,68,0.00,,,0.00,weatherlink.com 1.10,2013-02-19 10:57:00,
2013-02-19 06:13:00,40.3,34.0,29.64,SSE,162,8.0,15.0,77,0.03,,,0.03,weatherlink.com 1.10,2013-02-19 11:13:00,
2013-02-19 06:27:00,39.2,34.0,29.64,South,179,7.0,13.0,82,0.06,,,0.06,weatherlink.com 1.10,2013-02-19 11:27:00,
2013-02-19 06:43:00,39.0,35.0,29.63,SE,131,10.0,18.0,85,0.11,,,0.11,weatherlink.com 1.10,2013-02-19 11:43:00,
2013-02-19 07:13:00,38.5,36.0,29.62,SSE,151,13.0,15.0,90,0.16,,,0.19,weatherlink.com 1.10,2013-02-19 12:13:00,
2013-02-19 07:28:00,38.7,36.0,29.61,SSE,147,13.0,16.0,90,0.16,,,0.22,weatherlink.com 1.10,2013-02-19 12:28:00,
2013-02-19 07:43:00,38.9,37.0,29.61,SSW,198,14.0,17.0,91,0.15,,,0.26,weatherlink.com 1.10,2013-02-19 12:43:00,
2013-02-19 07:58:00,39.0,37.0,29.60,SSE,167,10.0,22.0,91,0.13,,,0.28,weatherlink.com 1.10,2013-02-19 12:58:00,
2013-02-19 08:13:00,39.0,37.0,29.59,South,177,15.0,25.0,91,0.11,,,0.30,weatherlink.com 1.10,2013-02-19 13:13:00,
2013-02-19 08:28:00,38.9,37.0,29.59,SSE,165,19.0,24.0,91,0.09,,,0.32,weatherlink.com 1.10,2013-02-19 13:28:00,
2013-02-19 08:43:00,38.9,37.0,29.58,SE,139,14.0,23.0,91,0.07,,,0.33,weatherlink.com 1.10,2013-02-19 13:43:00,
2013-02-19 08:59:00,38.9,37.0,29.57,SE,138,11.0,21.0,91,0.06,,,0.34,weatherlink.com 1.10,2013-02-19 13:59:00,
2013-02-19 09:13:00,39.1,37.0,29.56,South,190,10.0,29.0,91,0.05,,,0.35,weatherlink.com 1.10,2013-02-19 14:13:00,
2013-02-19 09:28:00,39.1,37.0,29.56,SSE,160,13.0,19.0,91,0.04,,,0.36,weatherlink.com 1.10,2013-02-19 14:28:00,
2013-02-19 09:43:00,39.2,37.0,29.55,SE,146,15.0,20.0,91,0.03,,,0.36,weatherlink.com 1.10,2013-02-19 14:43:00,
2013-02-19 09:58:00,39.6,37.0,29.55,SSW,207,13.0,21.0,91,0.02,,,0.36,weatherlink.com 1.10,2013-02-19 14:58:00,
2013-02-19 10:13:00,39.7,37.0,29.54,SSW,201,10.0,23.0,90,0.01,,,0.36,weatherlink.com 1.10,2013-02-19 15:13:00,
2013-02-19 10:28:00,39.6,37.0,29.54,South,176,11.0,23.0,90,0.00,,,0.36,weatherlink.com 1.10,2013-02-19 15:28:00,
2013-02-19 10:43:00,39.5,37.0,29.53,SSE,155,9.0,21.0,90,0.00,,,0.36,weatherlink.com 1.10,2013-02-19 15:43:00,
2013-02-19 10:59:00,39.6,37.0,29.53,South,169,12.0,18.0,90,0.00,,,0.36,weatherlink.com 1.10,2013-02-19 15:59:00,
2013-02-19 11:14:00,39.5,37.0,29.53,SSW,194,17.0,20.0,90,0.00,,,0.36,weatherlink.com 1.10,2013-02-19 16:14:00,
2013-02-19 11:28:00,38.0,35.0,29.55,SW,228,19.0,25.0,89,0.00,,,0.36,weatherlink.com 1.10,2013-02-19 16:28:00,
2013-02-19 11:44:00,36.1,34.0,29.56,SW,214,13.0,21.0,90,0.01,,,0.37,weatherlink.com 1.10,2013-02-19 16:44:00,
2013-02-19 11:58:00,35.5,33.0,29.56,SW,228,15.0,23.0,91,0.01,,,0.37,weatherlink.com 1.10,2013-02-19 16:58:00,
2013-02-19 12:13:00,34.9,33.0,29.56,SSW,201,17.0,21.0,91,0.01,,,0.37,weatherlink.com 1.10,2013-02-19 17:13:00,
2013-02-19 12:28:00,34.5,32.0,29.56,SW,231,16.0,27.0,91,0.01,,,0.37,weatherlink.com 1.10,2013-02-19 17:28:00,
2013-02-19 12:44:00,33.8,32.0,29.56,WSW,238,10.0,27.0,91,0.00,,,0.37,weatherlink.com 1.10,2013-02-19 17:44:00,
2013-02-19 12:59:00,33.3,31.0,29.56,SW,221,11.0,23.0,91,0.00,,,0.37,weatherlink.com 1.10,2013-02-19 17:59:00,
2013-02-19 13:14:00,32.8,31.0,29.57,WSW,249,15.0,25.0,91,0.00,,,0.37,weatherlink.com 1.10,2013-02-19 18:14:00,
2013-02-19 13:29:00,32.5,30.0,29.57,West,259,10.0,27.0,91,0.00,,,0.37,weatherlink.com 1.10,2013-02-19 18:29:00,
2013-02-19 13:44:00,32.2,30.0,29.58,SSW,208,11.0,29.0,90,0.00,,,0.37,weatherlink.com 1.10,2013-02-19 18:44:00,
2013-02-19 13:59:00,32.0,29.0,29.58,WSW,249,18.0,30.0,87,0.00,,,0.37,weatherlink.com 1.10,2013-02-19 18:59:00,
2013-02-19 14:14:00,31.1,27.0,29.59,SW,221,27.0,34.0,85,0.00,,,0.37,weatherlink.com 1.10,2013-02-19 19:14:00,
2013-02-19 14:29:00,31.1,26.0,29.59,SW,232,16.0,37.0,82,0.00,,,0.37,weatherlink.com 1.10,2013-02-19 19:29:00,
2013-02-19 14:44:00,31.0,25.0,29.60,SW,229,14.0,32.0,79,0.00,,,0.37,weatherlink.com 1.10,2013-02-19 19:44:00,
2013-02-19 14:59:00,31.2,25.0,29.61,WSW,237,15.0,27.0,78,0.00,,,0.37,weatherlink.com 1.10,2013-02-19 19:59:00,
2013-02-19 15:14:00,30.9,24.0,29.62,SW,225,13.0,33.0,75,0.00,,,0.37,weatherlink.com 1.10,2013-02-19 20:14:00,
2013-02-19 15:29:00,30.2,23.0,29.63,WSW,250,16.0,34.0,73,0.00,,,0.37,weatherlink.com 1.10,2013-02-19 20:29:00,
2013-02-19 15:44:00,29.8,22.0,29.64,WSW,243,19.0,39.0,72,0.00,,,0.37,weatherlink.com 1.10,2013-02-19 20:44:00,
2013-02-19 15:59:00,30.0,22.0,29.64,WSW,238,15.0,37.0,71,0.00,,,0.37,weatherlink.com 1.10,2013-02-19 20:59:00,
2013-02-19 16:14:00,30.0,22.0,29.65,WSW,242,17.0,30.0,73,0.00,,,0.37,weatherlink.com 1.10,2013-02-19 21:14:00,
2013-02-19 16:29:00,30.1,23.0,29.65,SW,236,13.0,29.0,75,0.00,,,0.37,weatherlink.com 1.10,2013-02-19 21:29:00,
2013-02-19 16:44:00,29.8,23.0,29.66,WSW,243,25.0,34.0,75,0.00,,,0.37,weatherlink.com 1.10,2013-02-19 21:44:00,
2013-02-19 17:00:00,29.4,22.0,29.66,SW,214,11.0,31.0,75,0.00,,,0.37,weatherlink.com 1.10,2013-02-19 22:00:00,
2013-02-19 17:14:00,29.1,22.0,29.66,WSW,246,30.0,36.0,75,0.00,,,0.37,weatherlink.com 1.10,2013-02-19 22:14:00,
2013-02-19 17:29:00,28.7,21.0,29.66,WSW,240,34.0,34.0,74,0.00,,,0.37,weatherlink.com 1.10,2013-02-19 22:29:00,
2013-02-19 17:44:00,28.2,21.0,29.66,WSW,240,17.0,27.0,75,0.00,,,0.37,weatherlink.com 1.10,2013-02-19 22:44:00,
2013-02-19 18:00:00,28.2,22.0,29.66,WSW,249,11.0,31.0,76,0.00,,,0.37,weatherlink.com 1.10,2013-02-19 23:00:00,
2013-02-19 18:14:00,28.2,22.0,29.67,WNW,288,11.0,28.0,76,0.00,,,0.37,weatherlink.com 1.10,2013-02-19 23:14:00,
2013-02-19 18:30:00,28.0,21.0,29.68,WSW,248,19.0,35.0,76,0.00,,,0.37,weatherlink.com 1.10,2013-02-19 23:30:00,
2013-02-19 18:44:00,27.7,21.0,29.68,SW,233,15.0,31.0,77,0.00,,,0.37,weatherlink.com 1.10,2013-02-19 23:44:00,
2013-02-19 19:00:00,27.5,21.0,29.68,WSW,257,14.0,28.0,77,0.00,,,0.37,weatherlink.com 1.10,2013-02-20 00:00:00,
2013-02-19 19:15:00,27.3,20.0,29.69,SW,226,21.0,35.0,75,0.00,,,0.37,weatherlink.com 1.10,2013-02-20 00:15:00,
2013-02-19 19:30:00,27.0,19.0,29.69,SW,233,18.0,35.0,73,0.00,,,0.37,weatherlink.com 1.10,2013-02-20 00:30:00,
2013-02-19 19:45:00,26.7,20.0,29.70,SW,214,15.0,31.0,75,0.00,,,0.37,weatherlink.com 1.10,2013-02-20 00:45:00,
2013-02-19 20:00:00,26.5,19.0,29.70,WSW,246,25.0,29.0,74,0.00,,,0.37,weatherlink.com 1.10,2013-02-20 01:00:00,
2013-02-19 20:15:00,26.1,18.0,29.71,SW,225,16.0,29.0,72,0.00,,,0.37,weatherlink.com 1.10,2013-02-20 01:15:00,
2013-02-19 20:30:00,25.8,18.0,29.71,South,188,9.0,31.0,72,0.00,,,0.37,weatherlink.com 1.10,2013-02-20 01:30:00,
2013-02-19 20:45:00,25.5,19.0,29.71,SW,236,17.0,30.0,75,0.00,,,0.37,weatherlink.com 1.10,2013-02-20 01:45:00,
2013-02-19 21:00:00,25.4,18.0,29.72,SW,224,20.0,29.0,74,0.00,,,0.37,weatherlink.com 1.10,2013-02-20 02:00:00,
2013-02-19 21:15:00,25.3,18.0,29.73,SW,226,23.0,27.0,74,0.00,,,0.37,weatherlink.com 1.10,2013-02-20 02:15:00,
2013-02-19 21:30:00,25.2,18.0,29.72,WSW,245,9.0,28.0,75,0.00,,,0.37,weatherlink.com 1.10,2013-02-20 02:30:00,
2013-02-19 21:45:00,25.0,18.0,29.72,SW,217,14.0,27.0,75,0.00,,,0.37,weatherlink.com 1.10,2013-02-20 02:45:00,
2013-02-19 22:00:00,25.0,19.0,29.73,SW,219,21.0,23.0,77,0.00,,,0.37,weatherlink.com 1.10,2013-02-20 03:00:00,
2013-02-19 22:15:00,25.3,18.0,29.73,WSW,243,21.0,28.0,74,0.00,,,0.37,weatherlink.com 1.10,2013-02-20 03:15:00,
2013-02-19 22:30:00,25.2,19.0,29.73,WSW,253,18.0,28.0,76,0.00,,,0.37,weatherlink.com 1.10,2013-02-20 03:30:00,
2013-02-19 22:46:00,25.1,18.0,29.73,WSW,255,20.0,28.0,75,0.00,,,0.37,weatherlink.com 1.10,2013-02-20 03:46:00,
2013-02-19 23:01:00,24.5,19.0,29.73,SW,226,9.0,27.0,78,0.00,,,0.37,weatherlink.com 1.10,2013-02-20 04:01:00,
2013-02-19 23:16:00,24.3,18.0,29.73,WSW,245,16.0,26.0,78,0.00,,,0.37,weatherlink.com 1.10,2013-02-20 04:16:00,
2013-02-19 23:30:00,24.0,18.0,29.73,SW,214,13.0,22.0,79,0.00,,,0.37,weatherlink.com 1.10,2013-02-20 04:30:00,
2013-02-19 23:45:00,23.9,18.0,29.73,WSW,246,14.0,25.0,79,0.00,,,0.37,weatherlink.com 1.10,2013-02-20 04:45:00,